createdAt,value
2022-09-30T00:07:37.690Z,15.90
2022-09-30T00:10:08.437Z,16.00
2022-09-30T00:12:54.485Z,16.10
2022-09-30T00:15:42.836Z,16.10
2022-09-30T00:18:10.301Z,16.10
2022-09-30T00:23:54.121Z,16.10
2022-09-30T00:30:01.342Z,16.10
2022-09-30T00:32:31.295Z,15.90
2022-09-30T00:35:13.542Z,15.80
2022-09-30T00:37:41.970Z,15.70
2022-09-30T00:40:22.181Z,15.70
2022-09-30T00:42:51.173Z,15.70
2022-09-30T00:45:29.333Z,15.70
2022-09-30T00:48:26.587Z,15.70
2022-09-30T00:51:24.157Z,15.70
2022-09-30T00:54:21.970Z,15.60
2022-09-30T00:59:55.296Z,15.60
2022-09-30T01:02:42.495Z,15.60
2022-09-30T01:08:37.973Z,15.60
2022-09-30T01:20:35.837Z,15.80
2022-09-30T01:23:22.596Z,15.80
2022-09-30T01:25:58.555Z,15.90
2022-09-30T01:32:09.291Z,15.90
2022-09-30T01:35:13.472Z,15.90
2022-09-30T01:37:49.421Z,15.90
2022-09-30T01:40:36.631Z,15.90
2022-09-30T01:46:50.439Z,15.80
2022-09-30T01:50:01.869Z,15.80
2022-09-30T01:52:53.896Z,15.80
2022-09-30T01:55:40.834Z,15.80
2022-09-30T02:04:54.604Z,15.80
2022-09-30T02:08:03.872Z,15.90
2022-09-30T02:13:47.746Z,15.90
2022-09-30T02:16:23.915Z,16.00
2022-09-30T02:19:06.239Z,16.00
2022-09-30T02:22:01.461Z,15.90
2022-09-30T02:24:40.862Z,15.90
2022-09-30T02:33:23.712Z,15.90
2022-09-30T02:36:35.104Z,15.90
2022-09-30T02:41:52.460Z,15.70
2022-09-30T02:44:51.362Z,15.70
2022-09-30T02:50:28.632Z,15.70
2022-09-30T02:53:28.241Z,15.70
2022-09-30T02:56:20.977Z,15.70
2022-09-30T02:58:51.335Z,15.60
2022-09-30T03:01:24.403Z,15.60
2022-09-30T03:04:20.494Z,15.50
2022-09-30T03:07:12.717Z,15.50
2022-09-30T03:13:03.387Z,15.30
2022-09-30T03:15:54.797Z,15.30
2022-09-30T03:21:19.562Z,15.20
2022-09-30T03:27:05.397Z,15.20
2022-09-30T03:29:53.244Z,15.20
2022-09-30T03:32:41.335Z,15.10
2022-09-30T03:35:36.023Z,15.10
2022-09-30T03:38:12.058Z,15.00
2022-09-30T03:41:08.128Z,15.00
2022-09-30T03:46:43.972Z,15.00
2022-09-30T03:49:34.808Z,15.00
2022-09-30T03:52:17.357Z,15.00
2022-09-30T03:55:09.985Z,14.90
2022-09-30T03:58:01.881Z,14.90
2022-09-30T04:01:14.358Z,14.90
2022-09-30T04:04:25.775Z,14.90
2022-09-30T04:06:57.827Z,14.90
2022-09-30T04:09:44.709Z,14.90
2022-09-30T04:15:28.890Z,15.00
2022-09-30T04:21:22.279Z,15.00
2022-09-30T04:27:17.158Z,15.10
2022-09-30T04:29:47.105Z,15.00
2022-09-30T04:32:54.474Z,15.00
2022-09-30T04:36:11.500Z,15.10
2022-09-30T04:41:51.182Z,15.10
2022-09-30T04:44:40.742Z,15.10
2022-09-30T04:50:52.255Z,15.10
2022-09-30T04:53:37.669Z,15.10
2022-09-30T04:56:19.836Z,15.10
2022-09-30T04:58:48.488Z,15.20
2022-09-30T05:01:25.714Z,15.20
2022-09-30T05:06:55.871Z,15.20
2022-09-30T05:09:47.778Z,15.20
2022-09-30T05:12:41.070Z,15.20
2022-09-30T05:15:29.612Z,15.20
2022-09-30T05:18:02.013Z,15.20
2022-09-30T05:20:54.915Z,15.20
2022-09-30T05:23:55.631Z,15.20
2022-09-30T05:26:23.411Z,15.20
2022-09-30T05:29:04.449Z,15.20
2022-09-30T05:31:36.959Z,15.10
2022-09-30T05:34:26.657Z,15.20
2022-09-30T05:40:17.653Z,15.20
2022-09-30T05:42:59.366Z,15.30
2022-09-30T05:46:45.309Z,15.30
2022-09-30T05:53:23.460Z,15.20
2022-09-30T05:56:10.764Z,15.20
2022-09-30T06:02:19.942Z,15.20
2022-09-30T06:04:59.026Z,15.20
2022-09-30T06:07:54.097Z,15.20
2022-09-30T06:11:03.523Z,15.20
2022-09-30T06:13:58.194Z,15.40
2022-09-30T06:16:53.067Z,15.40
2022-09-30T06:19:56.489Z,15.50
2022-09-30T06:23:17.526Z,15.50
2022-09-30T06:25:45.916Z,15.50
2022-09-30T06:28:13.058Z,15.60
2022-09-30T06:30:42.368Z,15.70
2022-09-30T06:33:14.586Z,15.80
2022-09-30T06:39:06.538Z,16.10
2022-09-30T06:45:32.303Z,16.40
2022-09-30T06:48:36.857Z,16.50
2022-09-30T06:51:30.015Z,16.60
2022-09-30T06:54:14.190Z,16.70
2022-09-30T06:57:14.013Z,16.80
2022-09-30T06:59:47.715Z,16.80
2022-09-30T07:02:46.577Z,16.80
2022-09-30T07:05:15.672Z,16.80
2022-09-30T07:07:47.306Z,16.90
2022-09-30T07:10:25.291Z,16.90
2022-09-30T07:12:52.629Z,17.00
2022-09-30T07:15:22.166Z,17.00
2022-09-30T07:17:53.641Z,17.00
2022-09-30T07:26:57.332Z,17.20
2022-09-30T07:32:05.553Z,17.40
2022-09-30T08:33:35.516Z,19.40
2022-09-30T08:45:50.467Z,19.70
2022-09-30T08:48:52.618Z,19.60
2022-09-30T08:51:37.480Z,19.60
2022-09-30T08:54:09.141Z,19.60
2022-09-30T09:31:20.856Z,19.10
2022-09-30T09:55:37.094Z,18.80
2022-09-30T09:58:06.907Z,18.80
2022-09-30T10:03:40.901Z,18.70
2022-09-30T10:06:55.740Z,18.70
2022-09-30T10:09:49.431Z,18.70
2022-09-30T10:12:48.702Z,18.70
2022-09-30T10:19:00.301Z,18.70
2022-09-30T10:21:58.760Z,18.70
2022-09-30T10:24:30.086Z,18.80
2022-09-30T10:27:02.008Z,18.80
2022-09-30T10:29:32.234Z,18.90
2022-09-30T10:32:02.769Z,18.90
2022-09-30T10:34:52.760Z,18.90
2022-09-30T10:37:40.593Z,19.00
2022-09-30T11:01:01.098Z,18.90
2022-09-30T11:33:41.820Z,18.90
2022-09-30T11:46:23.009Z,18.80
2022-09-30T11:55:51.436Z,18.80
2022-09-30T12:19:25.323Z,18.50
2022-09-30T12:22:24.349Z,18.40
2022-09-30T12:24:58.537Z,18.40
2022-09-30T12:27:35.981Z,18.30
2022-09-30T12:37:51.075Z,18.30
2022-09-30T12:43:51.668Z,18.10
2022-09-30T12:49:45.424Z,18.00
2022-09-30T12:52:24.258Z,18.00
2022-09-30T12:55:21.524Z,17.90
2022-09-30T12:58:16.709Z,17.80
2022-09-30T13:12:52.238Z,17.60
2022-09-30T13:15:49.494Z,17.60
2022-09-30T13:21:38.375Z,17.60
2022-09-30T13:24:10.937Z,17.60
2022-09-30T13:26:50.120Z,17.50
2022-09-30T13:32:05.499Z,17.50
2022-09-30T13:34:38.645Z,17.50
2022-09-30T13:37:32.586Z,17.50
2022-09-30T13:40:07.068Z,17.50
2022-09-30T13:42:42.223Z,17.40
2022-09-30T13:45:16.841Z,17.50
2022-09-30T13:47:50.759Z,17.40
2022-09-30T13:53:29.814Z,17.40
2022-09-30T13:56:22.341Z,17.50
2022-09-30T13:58:56.342Z,17.40
2022-09-30T14:01:50.057Z,17.40
2022-09-30T14:04:24.449Z,17.40
2022-09-30T14:06:54.002Z,17.50
2022-09-30T14:09:24.122Z,17.50
2022-09-30T14:12:12.482Z,17.50
2022-09-30T14:14:52.360Z,17.60
2022-09-30T14:17:30.386Z,17.60
2022-09-30T14:20:03.568Z,17.60
2022-09-30T14:22:30.936Z,17.60
2022-09-30T14:24:57.906Z,17.60
2022-09-30T14:27:34.145Z,17.70
2022-09-30T14:30:04.382Z,17.70
2022-09-30T14:32:39.591Z,17.70
2022-09-30T14:35:07.437Z,17.60
2022-09-30T14:37:39.919Z,17.70
2022-09-30T14:40:12.810Z,17.60
2022-09-30T14:42:41.348Z,17.60
2022-09-30T14:45:09.512Z,17.50
2022-09-30T14:47:56.368Z,17.60
2022-09-30T14:50:26.188Z,17.60
2022-09-30T14:53:03.794Z,17.60
2022-09-30T14:55:32.485Z,17.60
2022-09-30T14:58:21.817Z,17.60
2022-09-30T15:00:58.295Z,17.60
2022-09-30T15:03:28.083Z,17.70
2022-09-30T15:06:39.884Z,17.70
2022-09-30T15:09:10.177Z,17.70
2022-09-30T15:11:56.862Z,17.70
2022-09-30T15:14:28.147Z,17.70
2022-09-30T15:17:11.056Z,17.80
2022-09-30T15:19:43.219Z,17.80
2022-09-30T15:22:24.259Z,17.80
2022-09-30T15:28:30.534Z,17.80
2022-09-30T15:32:02.186Z,17.80
2022-09-30T15:37:37.078Z,17.70
2022-09-30T15:43:05.652Z,17.60
2022-09-30T15:50:03.834Z,17.40
2022-09-30T15:52:44.911Z,17.40
2022-09-30T15:55:42.373Z,17.40
2022-09-30T15:58:52.755Z,17.40
2022-09-30T16:01:40.980Z,17.40
2022-09-30T16:07:26.339Z,17.30
2022-09-30T16:09:53.862Z,17.30
2022-09-30T16:12:26.484Z,17.30
2022-09-30T16:52:55.210Z,17.00
2022-09-30T16:55:51.046Z,17.00
2022-09-30T16:58:39.284Z,16.90
2022-09-30T17:07:25.299Z,16.80
2022-09-30T17:13:10.898Z,16.80
2022-09-30T17:36:55.085Z,16.60
2022-09-30T17:39:59.747Z,16.60
2022-09-30T17:45:56.872Z,16.50
2022-09-30T17:48:25.965Z,16.40
2022-09-30T17:50:59.928Z,16.40
2022-09-30T17:53:37.256Z,16.40
2022-09-30T17:59:45.076Z,16.40
2022-09-30T18:02:21.843Z,16.40
2022-09-30T18:04:51.903Z,16.40
2022-09-30T18:19:47.252Z,16.30
2022-09-30T18:22:16.959Z,16.20
2022-09-30T18:25:04.278Z,16.20
2022-09-30T18:31:39.326Z,16.20
2022-09-30T18:38:16.980Z,16.30
2022-09-30T20:14:30.028Z,15.90
2022-09-30T20:52:21.914Z,15.80
2022-09-30T20:55:15.508Z,15.80
2022-09-30T20:57:49.185Z,15.80
2022-09-30T21:00:43.769Z,15.80
2022-09-30T21:03:16.021Z,15.70
2022-09-30T21:05:51.206Z,15.70
2022-09-30T21:08:18.183Z,15.70
2022-09-30T21:10:46.770Z,15.70
2022-09-30T21:13:14.041Z,15.80
2022-09-30T21:18:34.455Z,15.90
2022-09-30T21:21:13.727Z,15.90
2022-09-30T21:27:25.756Z,15.80
2022-09-30T21:30:12.114Z,15.80
2022-09-30T21:39:07.714Z,15.80
2022-09-30T21:45:06.660Z,15.80
2022-09-30T21:48:04.611Z,15.80
2022-09-30T21:53:34.329Z,15.80
2022-09-30T21:59:18.632Z,15.80
2022-09-30T22:05:15.173Z,15.80
2022-09-30T22:20:49.171Z,15.80
2022-09-30T22:23:22.151Z,15.80
2022-09-30T22:25:53.718Z,15.80
2022-09-30T22:28:34.771Z,15.70
2022-09-30T22:31:30.851Z,15.80
2022-09-30T22:34:21.470Z,15.80
2022-09-30T22:37:08.198Z,15.80
2022-09-30T22:39:35.819Z,15.80
2022-09-30T22:42:02.850Z,15.80
2022-09-30T22:44:34.653Z,15.80
2022-09-30T22:47:02.171Z,15.80
2022-09-30T22:49:35.092Z,15.70
2022-09-30T22:52:04.006Z,15.70
2022-09-30T22:54:38.575Z,15.70
2022-09-30T22:57:09.333Z,15.70
2022-09-30T22:59:37.250Z,15.70
2022-09-30T23:02:52.250Z,15.70
2022-09-30T23:06:30.113Z,15.70
2022-09-30T23:09:04.019Z,15.80
2022-09-30T23:11:33.305Z,15.80
2022-09-30T23:14:04.187Z,15.70
2022-09-30T23:16:31.522Z,15.70
2022-09-30T23:18:58.692Z,15.70
2022-09-30T23:21:30.385Z,15.70
2022-09-30T23:24:17.364Z,15.70
2022-09-30T23:26:44.759Z,15.70
2022-09-30T23:29:13.620Z,15.80
2022-09-30T23:32:45.279Z,15.80
2022-09-30T23:35:15.481Z,15.70
2022-09-30T23:37:42.600Z,15.80
2022-09-30T23:40:10.162Z,15.70
2022-09-30T23:42:38.622Z,15.70
2022-09-30T23:48:06.590Z,15.70
2022-09-30T23:50:33.745Z,15.70
2022-09-30T23:53:01.073Z,15.70
2022-09-30T23:55:29.644Z,15.70
2022-09-30T23:58:05.288Z,15.60
